createdAt,value
2022-11-18T00:01:21.226Z,71.20
2022-11-18T00:03:50.200Z,71.20
2022-11-18T00:06:20.317Z,71.80
2022-11-18T00:08:50.183Z,71.20
2022-11-18T00:11:39.563Z,71.20
2022-11-18T00:14:20.487Z,71.20
2022-11-18T00:16:49.565Z,71.20
2022-11-18T00:19:18.335Z,71.30
2022-11-18T00:21:46.728Z,71.20
2022-11-18T00:24:16.421Z,71.20
2022-11-18T00:26:44.533Z,71.20
2022-11-18T00:29:12.863Z,71.20
2022-11-18T00:31:41.039Z,71.20
2022-11-18T00:34:12.243Z,71.20
2022-11-18T00:36:40.376Z,71.20
2022-11-18T00:39:08.503Z,71.20
2022-11-18T00:41:55.154Z,71.20
2022-11-18T00:44:23.263Z,71.20
2022-11-18T00:46:51.356Z,71.20
2022-11-18T00:49:19.511Z,71.20
2022-11-18T00:51:47.925Z,71.20
2022-11-18T00:54:16.051Z,71.20
2022-11-18T00:56:45.592Z,71.90
2022-11-18T00:59:13.753Z,71.30
2022-11-18T01:01:42.082Z,71.30
2022-11-18T01:04:10.377Z,71.30
2022-11-18T01:06:38.528Z,71.20
2022-11-18T01:09:06.781Z,71.20
2022-11-18T01:11:52.447Z,71.20
2022-11-18T01:14:21.921Z,71.20
2022-11-18T01:16:51.431Z,71.20
2022-11-18T01:19:20.894Z,71.20
2022-11-18T01:21:49.062Z,71.20
2022-11-18T01:24:17.641Z,71.30
2022-11-18T01:26:45.754Z,71.30
2022-11-18T01:29:13.966Z,71.30
2022-11-18T01:32:08.818Z,71.30
2022-11-18T01:34:32.042Z,71.30
2022-11-18T01:37:00.215Z,71.30
2022-11-18T01:39:28.280Z,71.30
2022-11-18T01:41:56.420Z,71.90
2022-11-18T01:44:59.132Z,71.30
2022-11-18T01:47:32.682Z,71.30
2022-11-18T01:50:01.843Z,71.30
2022-11-18T01:52:30.871Z,71.30
2022-11-18T01:55:03.166Z,71.30
2022-11-18T01:57:32.502Z,71.30
2022-11-18T02:00:04.503Z,71.30
2022-11-18T02:02:36.771Z,71.30
2022-11-18T02:05:06.527Z,71.30
2022-11-18T02:07:37.083Z,71.30
2022-11-18T02:10:07.580Z,71.30
2022-11-18T02:12:36.771Z,71.30
2022-11-18T02:15:05.963Z,71.30
2022-11-18T02:17:44.751Z,71.30
2022-11-18T02:20:32.059Z,71.30
2022-11-18T02:23:57.240Z,71.30
2022-11-18T02:26:52.832Z,71.30
2022-11-18T02:29:26.881Z,71.30
2022-11-18T02:32:01.322Z,71.30
2022-11-18T02:34:42.720Z,71.30
2022-11-18T02:37:18.325Z,71.30
2022-11-18T02:39:54.953Z,71.30
2022-11-18T02:42:24.138Z,71.30
2022-11-18T02:44:57.770Z,71.30
2022-11-18T02:47:28.465Z,71.90
2022-11-18T02:50:00.272Z,71.40
2022-11-18T02:52:29.221Z,71.30
2022-11-18T02:54:59.159Z,71.30
2022-11-18T02:57:30.297Z,71.40
2022-11-18T02:59:59.826Z,71.30
2022-11-18T03:02:28.197Z,71.30
2022-11-18T03:04:59.767Z,71.70
2022-11-18T03:07:31.551Z,71.30
2022-11-18T03:10:01.213Z,71.30
2022-11-18T03:12:37.067Z,71.30
2022-11-18T03:15:14.784Z,71.30
2022-11-18T03:17:54.985Z,71.40
2022-11-18T03:20:27.141Z,71.40
2022-11-18T03:23:02.119Z,71.30
2022-11-18T03:25:37.879Z,72.00
2022-11-18T03:28:11.374Z,71.30
2022-11-18T03:30:46.522Z,71.30
2022-11-18T03:33:20.572Z,71.40
2022-11-18T03:35:52.829Z,71.30
2022-11-18T03:38:26.422Z,71.30
2022-11-18T03:40:58.986Z,71.30
2022-11-18T03:43:32.297Z,71.40
2022-11-18T03:46:08.272Z,71.40
2022-11-18T03:48:42.349Z,71.30
2022-11-18T03:51:13.224Z,71.30
2022-11-18T03:53:44.238Z,71.40
2022-11-18T03:56:17.431Z,71.30
2022-11-18T03:58:55.048Z,71.40
2022-11-18T04:01:31.333Z,71.30
2022-11-18T04:03:59.486Z,71.30
2022-11-18T04:06:35.545Z,71.30
2022-11-18T04:09:10.146Z,71.40
2022-11-18T04:12:02.336Z,71.40
2022-11-18T04:14:31.798Z,71.40
2022-11-18T04:17:01.490Z,71.30
2022-11-18T04:19:29.655Z,71.40
2022-11-18T04:21:57.760Z,71.50
2022-11-18T04:24:25.889Z,71.50
2022-11-18T04:26:53.970Z,71.50
2022-11-18T04:29:22.138Z,71.50
2022-11-18T04:31:50.311Z,71.60
2022-11-18T04:34:19.946Z,71.60
2022-11-18T04:36:48.019Z,71.60
2022-11-18T04:39:18.304Z,71.60
2022-11-18T04:41:59.195Z,71.60
2022-11-18T04:44:29.250Z,71.60
2022-11-18T04:46:59.319Z,71.70
2022-11-18T04:49:29.652Z,71.70
2022-11-18T04:51:58.118Z,71.70
2022-11-18T04:54:27.674Z,71.70
2022-11-18T04:56:56.616Z,71.80
2022-11-18T04:59:27.595Z,71.80
2022-11-18T05:01:55.895Z,71.80
2022-11-18T05:04:27.463Z,71.80
2022-11-18T05:06:57.088Z,71.80
2022-11-18T05:09:31.368Z,71.80
2022-11-18T05:12:17.805Z,71.90
2022-11-18T05:14:49.974Z,71.90
2022-11-18T05:17:19.016Z,72.50
2022-11-18T05:19:47.129Z,71.90
2022-11-18T05:22:17.331Z,71.90
2022-11-18T05:24:45.513Z,71.90
2022-11-18T05:27:14.378Z,71.80
2022-11-18T05:29:42.556Z,71.90
2022-11-18T05:32:10.730Z,71.90
2022-11-18T05:34:38.878Z,71.90
2022-11-18T05:37:07.078Z,71.90
2022-11-18T05:39:36.667Z,71.90
2022-11-18T05:42:22.951Z,71.90
2022-11-18T05:44:56.367Z,71.90
2022-11-18T05:47:26.047Z,71.80
2022-11-18T05:49:54.164Z,71.90
2022-11-18T05:52:22.315Z,71.80
2022-11-18T05:54:52.645Z,71.90
2022-11-18T05:57:20.780Z,71.90
2022-11-18T05:59:48.927Z,71.80
2022-11-18T06:02:21.052Z,71.80
2022-11-18T06:04:51.349Z,71.80
2022-11-18T06:07:23.971Z,71.80
2022-11-18T06:10:02.080Z,71.80
2022-11-18T06:12:37.208Z,71.80
2022-11-18T06:15:10.168Z,71.80
2022-11-18T06:17:45.757Z,71.80
2022-11-18T06:20:14.076Z,71.80
2022-11-18T06:22:46.488Z,71.80
2022-11-18T06:25:16.808Z,71.80
2022-11-18T06:27:45.677Z,71.80
2022-11-18T06:30:15.047Z,71.90
2022-11-18T06:32:46.150Z,71.90
2022-11-18T06:35:14.327Z,72.00
2022-11-18T06:37:42.474Z,71.90
2022-11-18T06:40:12.073Z,71.90
2022-11-18T06:42:55.594Z,71.90
2022-11-18T06:45:23.864Z,72.00
2022-11-18T06:47:52.045Z,71.90
2022-11-18T06:50:20.336Z,71.90
2022-11-18T06:52:48.425Z,71.80
2022-11-18T06:55:16.710Z,71.90
2022-11-18T06:57:46.296Z,71.90
2022-11-18T07:00:15.930Z,71.90
2022-11-18T07:02:44.049Z,71.90
2022-11-18T07:05:12.167Z,71.90
2022-11-18T07:07:42.220Z,71.80
2022-11-18T07:10:11.152Z,71.80
2022-11-18T07:12:39.232Z,71.80
2022-11-18T07:15:09.903Z,71.80
2022-11-18T07:17:38.029Z,71.80
2022-11-18T07:20:06.861Z,71.70
2022-11-18T07:22:35.079Z,71.80
2022-11-18T07:25:03.145Z,71.70
2022-11-18T07:27:31.217Z,71.80
2022-11-18T07:29:59.350Z,71.70
2022-11-18T07:32:28.828Z,71.70
2022-11-18T07:34:56.935Z,71.70
2022-11-18T07:37:25.063Z,71.70
2022-11-18T07:39:53.144Z,71.70
2022-11-18T07:42:21.232Z,71.70
2022-11-18T07:44:50.086Z,71.60
2022-11-18T07:47:18.213Z,71.60
2022-11-18T07:49:47.750Z,71.60
2022-11-18T07:52:15.889Z,71.60
2022-11-18T07:54:43.964Z,71.60
2022-11-18T07:57:12.125Z,71.60
2022-11-18T07:59:40.274Z,71.60
2022-11-18T08:02:08.439Z,71.60
2022-11-18T08:04:38.684Z,71.60
2022-11-18T08:07:10.769Z,71.60
2022-11-18T08:09:38.937Z,71.60
2022-11-18T08:12:07.725Z,71.70
2022-11-18T08:14:35.884Z,71.70
2022-11-18T08:17:04.044Z,71.70
2022-11-18T08:19:32.155Z,71.80
2022-11-18T08:22:00.276Z,71.80
2022-11-18T08:24:29.836Z,71.80
2022-11-18T08:26:57.931Z,71.80
2022-11-18T08:29:26.295Z,71.80
2022-11-18T08:31:54.751Z,71.80
2022-11-18T08:34:22.972Z,71.80
2022-11-18T08:36:51.144Z,71.70
2022-11-18T08:39:19.495Z,71.80
2022-11-18T08:41:49.266Z,71.80
2022-11-18T08:44:18.331Z,71.70
2022-11-18T08:46:46.982Z,71.70
2022-11-18T08:49:15.737Z,71.70
2022-11-18T08:51:44.241Z,71.70
2022-11-18T08:54:12.325Z,71.80
2022-11-18T08:56:40.466Z,71.70
2022-11-18T08:59:10.318Z,71.70
2022-11-18T09:01:38.764Z,71.60
2022-11-18T09:04:06.983Z,71.50
2022-11-18T09:06:35.149Z,71.60
2022-11-18T09:09:06.359Z,71.70
2022-11-18T09:11:35.767Z,71.70
2022-11-18T09:16:53.721Z,71.70
2022-11-18T09:19:46.193Z,71.60
2022-11-18T09:22:10.381Z,71.70
2022-11-18T09:24:38.542Z,71.60
2022-11-18T09:27:12.256Z,71.60
2022-11-18T09:29:43.528Z,71.60
2022-11-18T09:32:13.137Z,71.50
2022-11-18T09:34:41.231Z,71.50
2022-11-18T09:37:09.366Z,71.60
2022-11-18T09:39:38.120Z,71.60
2022-11-18T09:42:27.485Z,71.60
2022-11-18T09:45:14.640Z,71.60
2022-11-18T09:47:45.063Z,71.50
2022-11-18T09:50:47.442Z,71.50
2022-11-18T09:53:14.349Z,71.50
2022-11-18T09:55:43.514Z,71.60
2022-11-18T09:58:19.303Z,71.50
2022-11-18T10:00:47.417Z,71.50
2022-11-18T10:03:27.067Z,71.40
2022-11-18T10:05:59.195Z,71.40
2022-11-18T10:08:32.253Z,71.50
2022-11-18T10:11:04.880Z,71.50
2022-11-18T10:13:43.530Z,71.50
2022-11-18T10:16:26.749Z,71.50
2022-11-18T10:19:05.865Z,71.50
2022-11-18T10:21:52.490Z,71.50
2022-11-18T10:24:22.669Z,71.50
2022-11-18T10:26:56.576Z,71.60
2022-11-18T10:29:25.223Z,71.50
2022-11-18T10:32:01.111Z,71.50
2022-11-18T10:34:33.654Z,71.60
2022-11-18T10:37:03.839Z,71.60
2022-11-18T10:39:32.488Z,71.60
2022-11-18T10:42:04.116Z,71.60
2022-11-18T10:44:37.279Z,71.60
2022-11-18T10:47:27.650Z,71.60
2022-11-18T10:49:58.798Z,71.70
2022-11-18T10:52:27.911Z,71.70
2022-11-18T10:55:27.340Z,71.70
2022-11-18T10:57:59.367Z,71.70
2022-11-18T11:00:51.241Z,71.80
2022-11-18T11:03:34.115Z,71.80
2022-11-18T11:06:22.367Z,71.80
2022-11-18T11:08:52.200Z,71.80
2022-11-18T11:11:26.596Z,71.90
2022-11-18T11:14:01.334Z,71.90
2022-11-18T11:16:31.581Z,71.80
2022-11-18T11:19:04.141Z,71.90
2022-11-18T11:21:33.651Z,71.80
2022-11-18T11:24:01.801Z,71.80
2022-11-18T11:29:36.234Z,71.80
2022-11-18T11:32:14.820Z,71.80
2022-11-18T11:34:49.893Z,71.80
2022-11-18T11:37:30.247Z,71.80
2022-11-18T11:40:19.064Z,71.80
2022-11-18T11:42:56.547Z,71.80
2022-11-18T11:45:30.242Z,71.70
2022-11-18T11:48:22.785Z,71.70
2022-11-18T11:51:03.336Z,71.60
2022-11-18T11:54:01.165Z,71.60
2022-11-18T11:56:35.624Z,71.60
2022-11-18T11:59:26.528Z,71.60
2022-11-18T12:02:00.770Z,71.60
2022-11-18T12:04:38.646Z,71.60
2022-11-18T12:07:09.347Z,71.60
2022-11-18T12:10:04.683Z,71.60
2022-11-18T12:12:39.406Z,71.60
2022-11-18T12:15:25.663Z,71.60
2022-11-18T12:18:01.209Z,71.50
2022-11-18T12:20:45.198Z,71.60
2022-11-18T12:23:15.830Z,71.60
2022-11-18T12:26:07.026Z,72.20
2022-11-18T12:28:37.167Z,71.60
2022-11-18T12:31:36.975Z,71.50
2022-11-18T12:34:28.257Z,71.50
2022-11-18T12:36:57.134Z,71.50
2022-11-18T12:39:59.498Z,71.50
2022-11-18T12:43:02.093Z,71.50
2022-11-18T12:45:57.985Z,71.50
2022-11-18T12:48:32.480Z,71.50
2022-11-18T12:51:02.263Z,71.50
2022-11-18T12:53:38.573Z,71.50
2022-11-18T12:56:23.909Z,71.50
2022-11-18T12:58:55.660Z,71.50
2022-11-18T13:01:27.570Z,71.40
2022-11-18T13:04:08.857Z,71.40
2022-11-18T13:06:39.618Z,71.40
2022-11-18T13:09:17.681Z,71.40
2022-11-18T13:11:53.022Z,71.30
2022-11-18T13:14:45.847Z,71.30
2022-11-18T13:17:46.713Z,71.30
2022-11-18T13:20:27.381Z,71.20
2022-11-18T13:23:15.232Z,71.20
2022-11-18T13:25:45.232Z,71.20
2022-11-18T13:28:26.773Z,71.20
2022-11-18T13:31:02.833Z,71.30
2022-11-18T13:33:34.666Z,71.30
2022-11-18T13:36:03.031Z,71.30
2022-11-18T13:38:31.232Z,71.20
2022-11-18T13:41:13.099Z,71.20
2022-11-18T13:43:41.322Z,71.20
2022-11-18T13:46:17.705Z,71.30
2022-11-18T13:48:50.518Z,71.40
2022-11-18T13:51:19.448Z,71.30
2022-11-18T13:53:48.680Z,71.40
2022-11-18T13:56:21.358Z,71.40
2022-11-18T13:59:16.381Z,71.40
2022-11-18T14:01:46.635Z,71.40
2022-11-18T14:04:20.582Z,71.40
2022-11-18T14:06:49.193Z,71.40
2022-11-18T14:09:22.239Z,71.40
2022-11-18T14:12:01.241Z,71.40
2022-11-18T14:14:31.926Z,71.40
2022-11-18T14:17:18.201Z,71.40
2022-11-18T14:19:47.693Z,72.00
2022-11-18T14:22:19.606Z,71.50
2022-11-18T14:24:56.668Z,71.50
2022-11-18T14:27:47.553Z,71.50
2022-11-18T14:30:36.425Z,71.50
2022-11-18T14:33:20.524Z,71.40
2022-11-18T14:35:54.955Z,71.40
2022-11-18T14:38:52.451Z,71.40
2022-11-18T14:41:15.810Z,71.40
2022-11-18T14:43:46.169Z,71.40
2022-11-18T14:46:18.184Z,71.40
2022-11-18T14:48:47.956Z,71.40
2022-11-18T14:51:17.274Z,71.40
2022-11-18T14:53:45.872Z,71.30
2022-11-18T14:56:17.120Z,71.30
2022-11-18T14:58:45.316Z,71.30
2022-11-18T15:01:14.208Z,71.30
2022-11-18T15:03:42.433Z,71.30
2022-11-18T15:06:19.571Z,71.30
2022-11-18T15:08:49.599Z,71.30
2022-11-18T15:11:19.144Z,71.30
2022-11-18T15:13:47.749Z,71.30
2022-11-18T15:16:17.785Z,71.40
2022-11-18T15:18:47.759Z,71.30
2022-11-18T15:21:17.484Z,71.30
2022-11-18T15:23:45.757Z,71.30
2022-11-18T15:26:20.513Z,71.30
2022-11-18T15:28:49.257Z,71.20
2022-11-18T15:31:17.968Z,71.20
2022-11-18T15:33:47.087Z,71.20
2022-11-18T15:36:18.480Z,71.20
2022-11-18T15:38:46.894Z,71.20
2022-11-18T15:41:18.594Z,71.20
2022-11-18T15:43:47.048Z,71.20
2022-11-18T15:46:15.192Z,71.10
2022-11-18T15:48:43.773Z,71.10
2022-11-18T15:51:12.592Z,71.20
2022-11-18T15:53:42.211Z,71.20
2022-11-18T15:56:25.869Z,71.10
2022-11-18T15:58:56.743Z,71.10
2022-11-18T16:01:25.958Z,71.00
2022-11-18T16:03:54.483Z,71.00
2022-11-18T16:06:22.952Z,71.00
2022-11-18T16:08:58.843Z,71.00
2022-11-18T16:11:45.681Z,71.00
2022-11-18T16:14:16.343Z,71.00
2022-11-18T16:16:46.316Z,71.00
2022-11-18T16:19:16.837Z,71.00
2022-11-18T16:21:47.425Z,71.00
2022-11-18T16:24:19.289Z,71.00
2022-11-18T16:26:48.065Z,71.00
2022-11-18T16:29:17.606Z,71.00
2022-11-18T16:31:50.897Z,71.10
2022-11-18T16:34:21.231Z,71.10
2022-11-18T16:36:50.600Z,71.10
2022-11-18T16:39:23.593Z,71.00
2022-11-18T16:41:52.033Z,71.00
2022-11-18T16:44:20.530Z,71.00
2022-11-18T16:46:51.220Z,71.00
2022-11-18T16:49:21.180Z,70.90
2022-11-18T16:51:51.783Z,70.90
2022-11-18T16:54:23.796Z,70.90
2022-11-18T16:56:53.300Z,70.90
2022-11-18T16:59:23.664Z,70.90
2022-11-18T17:01:54.002Z,70.90
2022-11-18T17:04:24.461Z,71.00
2022-11-18T17:06:53.370Z,70.90
2022-11-18T17:09:24.376Z,71.00
2022-11-18T17:11:53.582Z,71.00
2022-11-18T17:14:22.633Z,70.90
2022-11-18T17:16:51.523Z,71.00
2022-11-18T17:19:21.922Z,70.90
2022-11-18T17:21:50.622Z,70.90
2022-11-18T17:24:20.914Z,70.90
2022-11-18T17:26:51.027Z,71.00
2022-11-18T17:29:19.784Z,71.00
2022-11-18T17:31:48.132Z,71.00
2022-11-18T17:34:17.244Z,71.10
2022-11-18T17:36:45.948Z,71.10
2022-11-18T17:39:14.409Z,71.20
2022-11-18T17:42:00.350Z,71.20
2022-11-18T17:44:30.113Z,71.10
2022-11-18T17:46:58.238Z,71.20
2022-11-18T17:49:26.381Z,71.10
2022-11-18T17:51:54.613Z,71.20
2022-11-18T17:54:23.164Z,71.20
2022-11-18T17:56:52.957Z,71.20
2022-11-18T17:59:21.589Z,71.20
2022-11-18T18:01:57.284Z,71.20
2022-11-18T18:04:26.912Z,71.10
2022-11-18T18:06:56.326Z,71.10
2022-11-18T18:09:30.136Z,71.10
2022-11-18T18:11:59.059Z,71.10
2022-11-18T18:14:26.189Z,71.10
2022-11-18T18:16:55.669Z,71.10
2022-11-18T18:19:24.805Z,71.10
2022-11-18T18:21:54.133Z,71.00
2022-11-18T18:24:22.798Z,71.00
2022-11-18T18:26:51.298Z,71.00
2022-11-18T18:29:22.916Z,71.00
2022-11-18T18:31:51.091Z,71.00
2022-11-18T18:34:21.009Z,71.00
2022-11-18T18:36:49.509Z,71.00
2022-11-18T18:39:17.663Z,70.90
2022-11-18T18:41:45.786Z,70.90
2022-11-18T18:44:18.348Z,70.80
2022-11-18T18:46:46.013Z,70.80
2022-11-18T18:49:15.824Z,70.80
2022-11-18T18:51:48.942Z,70.70
2022-11-18T18:54:19.606Z,70.70
2022-11-18T18:56:47.822Z,70.60
2022-11-18T18:59:15.924Z,70.60
2022-11-18T19:01:44.097Z,70.60
2022-11-18T19:04:14.247Z,70.60
2022-11-18T19:07:01.153Z,70.60
2022-11-18T19:09:29.342Z,70.60
2022-11-18T19:12:14.923Z,70.50
2022-11-18T19:14:43.254Z,70.50
2022-11-18T19:17:12.802Z,70.60
2022-11-18T19:19:59.652Z,70.60
2022-11-18T19:22:31.331Z,70.60
2022-11-18T19:25:00.445Z,70.50
2022-11-18T19:27:29.415Z,70.60
2022-11-18T19:29:57.762Z,70.50
2022-11-18T19:32:26.112Z,70.50
2022-11-18T19:34:54.482Z,70.50
2022-11-18T19:37:22.708Z,70.50
2022-11-18T19:39:52.276Z,70.50
2022-11-18T19:42:20.644Z,70.50
2022-11-18T19:44:48.919Z,70.50
2022-11-18T19:47:17.019Z,70.50
2022-11-18T19:49:45.120Z,70.40
2022-11-18T19:52:13.334Z,70.40
2022-11-18T19:54:41.554Z,70.40
2022-11-18T19:57:11.073Z,70.40
2022-11-18T19:59:39.641Z,70.40
2022-11-18T20:02:08.375Z,70.40
2022-11-18T20:04:36.458Z,70.40
2022-11-18T20:07:04.648Z,70.40
2022-11-18T20:09:32.819Z,70.40
2022-11-18T20:12:01.076Z,70.50
2022-11-18T20:14:30.638Z,70.40
2022-11-18T20:16:58.761Z,70.40
2022-11-18T20:19:26.837Z,70.50
2022-11-18T20:21:54.948Z,70.40
2022-11-18T20:24:23.017Z,70.40
2022-11-18T20:26:51.149Z,70.40
2022-11-18T20:29:19.390Z,70.40
2022-11-18T20:31:48.989Z,70.40
2022-11-18T20:34:17.291Z,70.40
2022-11-18T20:36:46.511Z,70.40
2022-11-18T20:39:16.312Z,70.40
2022-11-18T20:42:05.000Z,70.40
2022-11-18T20:44:33.515Z,70.40
2022-11-18T20:47:03.329Z,70.40
2022-11-18T20:49:31.449Z,70.50
2022-11-18T20:51:59.623Z,70.50
2022-11-18T20:54:27.753Z,70.50
2022-11-18T20:56:55.894Z,70.40
2022-11-18T20:59:24.797Z,70.50
2022-11-18T21:01:53.126Z,70.50
2022-11-18T21:04:22.788Z,70.40
2022-11-18T21:06:54.553Z,70.50
2022-11-18T21:09:24.878Z,70.40
2022-11-18T21:11:53.029Z,70.50
2022-11-18T21:14:24.702Z,70.50
2022-11-18T21:16:55.245Z,70.50
2022-11-18T21:19:26.367Z,70.50
2022-11-18T21:21:55.083Z,70.50
2022-11-18T21:24:25.284Z,70.50
2022-11-18T21:26:55.412Z,70.50
2022-11-18T21:29:24.560Z,70.50
2022-11-18T21:31:53.666Z,70.50
2022-11-18T21:34:22.360Z,70.40
2022-11-18T21:36:54.857Z,70.50
2022-11-18T21:39:23.790Z,70.50
2022-11-18T21:41:56.308Z,70.50
2022-11-18T21:44:25.760Z,70.50
2022-11-18T21:46:54.082Z,70.60
2022-11-18T21:49:22.736Z,70.50
2022-11-18T21:51:52.512Z,70.50
2022-11-18T21:54:20.659Z,70.50
2022-11-18T21:56:49.320Z,70.60
2022-11-18T21:59:17.612Z,70.60
2022-11-18T22:01:46.020Z,70.60
2022-11-18T22:04:34.166Z,70.60
2022-11-18T22:07:03.796Z,70.60
2022-11-18T22:09:36.384Z,70.60
2022-11-18T22:12:06.720Z,70.60
2022-11-18T22:17:25.369Z,70.60
2022-11-18T22:19:53.445Z,70.60
2022-11-18T22:22:22.986Z,70.60
2022-11-18T22:24:51.148Z,70.50
2022-11-18T22:27:19.366Z,70.60
2022-11-18T22:29:47.476Z,70.60
2022-11-18T22:32:16.819Z,70.60
2022-11-18T22:34:47.996Z,70.60
2022-11-18T22:37:19.838Z,70.60
2022-11-18T22:39:49.345Z,70.60
2022-11-18T22:42:43.007Z,70.60
2022-11-18T22:45:11.327Z,70.60
2022-11-18T22:47:39.431Z,70.60
2022-11-18T22:50:08.123Z,70.60
2022-11-18T22:52:36.696Z,70.60
2022-11-18T22:55:06.736Z,70.70
2022-11-18T22:57:35.355Z,70.70
2022-11-18T23:00:04.664Z,70.70
2022-11-18T23:02:32.801Z,70.70
2022-11-18T23:05:00.913Z,70.70
2022-11-18T23:07:29.266Z,70.70
2022-11-18T23:09:57.401Z,70.70
2022-11-18T23:12:47.706Z,70.70
2022-11-18T23:15:16.149Z,70.70
2022-11-18T23:17:44.274Z,70.70
2022-11-18T23:20:12.952Z,70.70
2022-11-18T23:22:41.079Z,70.70
2022-11-18T23:25:09.710Z,70.70
2022-11-18T23:27:39.188Z,70.80
2022-11-18T23:30:08.546Z,70.70
2022-11-18T23:32:36.850Z,70.70
2022-11-18T23:35:05.736Z,70.70
2022-11-18T23:37:33.870Z,70.70
2022-11-18T23:40:01.978Z,70.70
2022-11-18T23:42:30.111Z,70.70
2022-11-18T23:45:04.858Z,70.70
2022-11-18T23:47:33.451Z,70.80
2022-11-18T23:50:01.594Z,70.70
2022-11-18T23:52:29.690Z,70.80
2022-11-18T23:54:59.411Z,70.80
2022-11-18T23:57:27.550Z,70.80
2022-11-18T23:59:55.685Z,70.80
